sensor_id;sensor_type;location;lat;lon;timestamp;P1;durP1;ratioP1;P2;durP2;ratioP2
74612;SDS011;63119;51.788;8.824;2023-06-01T00:02:15;4.88;;;2.10;;
74612;SDS011;63119;51.788;8.824;2023-06-01T00:04:40;5.50;;;2.10;;
74612;SDS011;63119;51.788;8.824;2023-06-01T00:07:09;7.93;;;2.40;;
74612;SDS011;63119;51.788;8.824;2023-06-01T00:09:35;2.75;;;1.50;;
74612;SDS011;63119;51.788;8.824;2023-06-01T00:12:01;6.68;;;2.10;;
74612;SDS011;63119;51.788;8.824;2023-06-01T00:14:27;4.40;;;2.00;;
74612;SDS011;63119;51.788;8.824;2023-06-01T00:16:52;10.03;;;2.43;;
74612;SDS011;63119;51.788;8.824;2023-06-01T00:19:17;4.13;;;1.83;;
74612;SDS011;63119;51.788;8.824;2023-06-01T00:21:43;4.82;;;1.95;;
74612;SDS011;63119;51.788;8.824;2023-06-01T00:24:08;2.90;;;1.83;;
74612;SDS011;63119;51.788;8.824;2023-06-01T00:26:34;4.55;;;2.10;;
74612;SDS011;63119;51.788;8.824;2023-06-01T00:28:59;4.67;;;2.50;;
74612;SDS011;63119;51.788;8.824;2023-06-01T00:31:25;5.88;;;1.83;;
74612;SDS011;63119;51.788;8.824;2023-06-01T00:33:50;3.88;;;1.80;;
74612;SDS011;63119;51.788;8.824;2023-06-01T00:36:16;5.20;;;2.28;;
74612;SDS011;63119;51.788;8.824;2023-06-01T00:38:41;4.93;;;2.10;;
74612;SDS011;63119;51.788;8.824;2023-06-01T00:41:07;4.53;;;1.90;;
74612;SDS011;63119;51.788;8.824;2023-06-01T00:43:32;4.67;;;2.00;;
74612;SDS011;63119;51.788;8.824;2023-06-01T00:45:57;3.67;;;2.30;;
74612;SDS011;63119;51.788;8.824;2023-06-01T00:48:23;6.47;;;2.50;;
74612;SDS011;63119;51.788;8.824;2023-06-01T00:50:48;8.67;;;2.73;;
74612;SDS011;63119;51.788;8.824;2023-06-01T00:53:15;5.45;;;2.10;;
74612;SDS011;63119;51.788;8.824;2023-06-01T00:55:42;3.15;;;1.70;;
74612;SDS011;63119;51.788;8.824;2023-06-01T00:58:08;4.78;;;2.30;;
74612;SDS011;63119;51.788;8.824;2023-06-01T01:00:33;5.23;;;2.20;;
74612;SDS011;63119;51.788;8.824;2023-06-01T01:02:58;5.83;;;2.10;;
74612;SDS011;63119;51.788;8.824;2023-06-01T01:05:32;4.50;;;2.13;;
74612;SDS011;63119;51.788;8.824;2023-06-01T01:08:00;5.05;;;2.00;;
74612;SDS011;63119;51.788;8.824;2023-06-01T01:10:42;6.10;;;2.30;;
74612;SDS011;63119;51.788;8.824;2023-06-01T01:13:18;4.80;;;2.10;;
74612;SDS011;63119;51.788;8.824;2023-06-01T01:18:33;6.93;;;2.20;;
74612;SDS011;63119;51.788;8.824;2023-06-01T01:21:03;4.88;;;2.30;;
74612;SDS011;63119;51.788;8.824;2023-06-01T01:24:10;6.93;;;2.22;;
74612;SDS011;63119;51.788;8.824;2023-06-01T01:27:04;5.78;;;2.08;;
74612;SDS011;63119;51.788;8.824;2023-06-01T01:29:39;5.50;;;2.33;;
74612;SDS011;63119;51.788;8.824;2023-06-01T01:32:06;5.22;;;2.55;;
74612;SDS011;63119;51.788;8.824;2023-06-01T01:34:33;4.78;;;2.60;;
74612;SDS011;63119;51.788;8.824;2023-06-01T01:36:59;8.35;;;3.33;;
74612;SDS011;63119;51.788;8.824;2023-06-01T01:39:25;7.88;;;3.95;;
74612;SDS011;63119;51.788;8.824;2023-06-01T01:41:51;6.70;;;3.77;;
74612;SDS011;63119;51.788;8.824;2023-06-01T01:44:16;10.27;;;3.83;;
74612;SDS011;63119;51.788;8.824;2023-06-01T01:54:42;10.98;;;4.63;;
74612;SDS011;63119;51.788;8.824;2023-06-01T01:57:09;8.35;;;4.88;;
74612;SDS011;63119;51.788;8.824;2023-06-01T01:59:37;9.88;;;5.05;;
74612;SDS011;63119;51.788;8.824;2023-06-01T02:02:03;9.55;;;4.53;;
74612;SDS011;63119;51.788;8.824;2023-06-01T02:04:28;11.20;;;5.05;;
74612;SDS011;63119;51.788;8.824;2023-06-01T02:06:54;9.70;;;4.87;;
74612;SDS011;63119;51.788;8.824;2023-06-01T02:09:19;11.20;;;4.77;;
74612;SDS011;63119;51.788;8.824;2023-06-01T02:11:44;10.43;;;4.70;;
74612;SDS011;63119;51.788;8.824;2023-06-01T02:14:10;10.40;;;4.78;;
74612;SDS011;63119;51.788;8.824;2023-06-01T02:16:35;11.10;;;5.97;;
74612;SDS011;63119;51.788;8.824;2023-06-01T02:19:01;12.37;;;5.57;;
74612;SDS011;63119;51.788;8.824;2023-06-01T02:21:27;10.27;;;5.53;;
74612;SDS011;63119;51.788;8.824;2023-06-01T02:23:52;10.63;;;5.20;;
74612;SDS011;63119;51.788;8.824;2023-06-01T02:26:18;12.50;;;5.77;;
74612;SDS011;63119;51.788;8.824;2023-06-01T02:28:43;9.57;;;5.25;;
74612;SDS011;63119;51.788;8.824;2023-06-01T02:31:08;10.73;;;5.50;;
74612;SDS011;63119;51.788;8.824;2023-06-01T02:33:34;11.50;;;5.50;;
74612;SDS011;63119;51.788;8.824;2023-06-01T02:35:59;10.88;;;5.10;;
74612;SDS011;63119;51.788;8.824;2023-06-01T02:38:25;10.32;;;5.00;;
74612;SDS011;63119;51.788;8.824;2023-06-01T02:40:51;11.57;;;5.82;;
74612;SDS011;63119;51.788;8.824;2023-06-01T02:43:16;12.32;;;5.93;;
74612;SDS011;63119;51.788;8.824;2023-06-01T02:45:41;10.57;;;5.40;;
74612;SDS011;63119;51.788;8.824;2023-06-01T02:48:06;14.53;;;6.23;;
74612;SDS011;63119;51.788;8.824;2023-06-01T02:50:32;13.13;;;5.70;;
74612;SDS011;63119;51.788;8.824;2023-06-01T02:52:57;10.93;;;5.78;;
74612;SDS011;63119;51.788;8.824;2023-06-01T02:55:22;12.40;;;5.90;;
74612;SDS011;63119;51.788;8.824;2023-06-01T02:57:49;13.73;;;5.88;;
74612;SDS011;63119;51.788;8.824;2023-06-01T03:00:14;12.35;;;5.97;;
74612;SDS011;63119;51.788;8.824;2023-06-01T03:02:42;11.98;;;5.95;;
74612;SDS011;63119;51.788;8.824;2023-06-01T03:05:08;10.65;;;6.10;;
74612;SDS011;63119;51.788;8.824;2023-06-01T03:07:34;12.55;;;5.43;;
74612;SDS011;63119;51.788;8.824;2023-06-01T03:10:00;12.73;;;6.53;;
74612;SDS011;63119;51.788;8.824;2023-06-01T03:12:25;14.50;;;5.63;;
74612;SDS011;63119;51.788;8.824;2023-06-01T03:14:50;13.70;;;5.90;;
74612;SDS011;63119;51.788;8.824;2023-06-01T03:17:16;13.43;;;6.18;;
74612;SDS011;63119;51.788;8.824;2023-06-01T03:19:41;12.73;;;5.93;;
74612;SDS011;63119;51.788;8.824;2023-06-01T03:22:06;14.57;;;6.27;;
74612;SDS011;63119;51.788;8.824;2023-06-01T03:24:31;10.90;;;5.40;;
74612;SDS011;63119;51.788;8.824;2023-06-01T03:26:57;11.07;;;5.70;;
74612;SDS011;63119;51.788;8.824;2023-06-01T03:29:22;15.18;;;6.57;;
74612;SDS011;63119;51.788;8.824;2023-06-01T03:31:48;11.82;;;5.35;;
74612;SDS011;63119;51.788;8.824;2023-06-01T03:34:13;10.00;;;5.80;;
74612;SDS011;63119;51.788;8.824;2023-06-01T03:36:38;9.03;;;5.47;;
74612;SDS011;63119;51.788;8.824;2023-06-01T03:39:04;10.57;;;5.57;;
74612;SDS011;63119;51.788;8.824;2023-06-01T03:41:33;12.95;;;5.60;;
74612;SDS011;63119;51.788;8.824;2023-06-01T03:43:59;11.38;;;5.90;;
74612;SDS011;63119;51.788;8.824;2023-06-01T03:46:25;11.02;;;5.43;;
74612;SDS011;63119;51.788;8.824;2023-06-01T03:48:50;13.83;;;6.33;;
74612;SDS011;63119;51.788;8.824;2023-06-01T03:51:16;14.15;;;6.40;;
74612;SDS011;63119;51.788;8.824;2023-06-01T03:53:41;17.23;;;6.43;;
74612;SDS011;63119;51.788;8.824;2023-06-01T03:56:07;15.03;;;6.10;;
74612;SDS011;63119;51.788;8.824;2023-06-01T03:58:32;17.17;;;5.73;;
74612;SDS011;63119;51.788;8.824;2023-06-01T04:00:57;11.40;;;5.43;;
74612;SDS011;63119;51.788;8.824;2023-06-01T04:03:23;10.82;;;5.20;;
74612;SDS011;63119;51.788;8.824;2023-06-01T04:05:49;11.90;;;5.55;;
74612;SDS011;63119;51.788;8.824;2023-06-01T04:08:23;11.70;;;5.38;;
74612;SDS011;63119;51.788;8.824;2023-06-01T04:10:49;9.02;;;4.60;;
74612;SDS011;63119;51.788;8.824;2023-06-01T04:13:14;11.68;;;5.50;;
74612;SDS011;63119;51.788;8.824;2023-06-01T04:15:39;10.60;;;5.27;;
74612;SDS011;63119;51.788;8.824;2023-06-01T04:18:05;10.37;;;5.53;;
74612;SDS011;63119;51.788;8.824;2023-06-01T04:20:30;13.27;;;5.45;;
74612;SDS011;63119;51.788;8.824;2023-06-01T04:22:56;14.52;;;5.97;;
74612;SDS011;63119;51.788;8.824;2023-06-01T04:25:21;12.60;;;5.47;;
74612;SDS011;63119;51.788;8.824;2023-06-01T04:27:48;15.82;;;6.22;;
74612;SDS011;63119;51.788;8.824;2023-06-01T04:32:42;13.68;;;5.95;;
74612;SDS011;63119;51.788;8.824;2023-06-01T04:35:09;11.60;;;6.35;;
74612;SDS011;63119;51.788;8.824;2023-06-01T04:37:35;10.75;;;5.18;;
74612;SDS011;63119;51.788;8.824;2023-06-01T04:40:02;11.88;;;5.80;;
74612;SDS011;63119;51.788;8.824;2023-06-01T04:42:32;13.20;;;6.07;;
74612;SDS011;63119;51.788;8.824;2023-06-01T04:45:03;12.90;;;5.20;;
74612;SDS011;63119;51.788;8.824;2023-06-01T04:47:29;8.60;;;5.25;;
74612;SDS011;63119;51.788;8.824;2023-06-01T04:49:56;12.73;;;5.80;;
74612;SDS011;63119;51.788;8.824;2023-06-01T04:52:21;14.67;;;5.63;;
74612;SDS011;63119;51.788;8.824;2023-06-01T04:54:47;11.40;;;5.07;;
74612;SDS011;63119;51.788;8.824;2023-06-01T04:57:13;15.43;;;5.50;;
74612;SDS011;63119;51.788;8.824;2023-06-01T04:59:39;12.05;;;5.32;;
74612;SDS011;63119;51.788;8.824;2023-06-01T05:02:05;11.70;;;5.38;;
74612;SDS011;63119;51.788;8.824;2023-06-01T05:04:30;10.23;;;5.63;;
74612;SDS011;63119;51.788;8.824;2023-06-01T05:06:56;10.23;;;4.90;;
74612;SDS011;63119;51.788;8.824;2023-06-01T05:09:21;10.00;;;5.20;;
74612;SDS011;63119;51.788;8.824;2023-06-01T05:11:46;12.73;;;5.00;;
74612;SDS011;63119;51.788;8.824;2023-06-01T05:14:11;11.87;;;4.97;;
74612;SDS011;63119;51.788;8.824;2023-06-01T05:16:36;13.90;;;5.70;;
74612;SDS011;63119;51.788;8.824;2023-06-01T05:19:02;9.60;;;4.73;;
74612;SDS011;63119;51.788;8.824;2023-06-01T05:21:27;12.37;;;5.50;;
74612;SDS011;63119;51.788;8.824;2023-06-01T05:23:53;9.55;;;5.22;;
74612;SDS011;63119;51.788;8.824;2023-06-01T05:26:18;12.43;;;5.07;;
74612;SDS011;63119;51.788;8.824;2023-06-01T05:28:43;13.70;;;5.83;;
74612;SDS011;63119;51.788;8.824;2023-06-01T05:31:08;14.70;;;6.43;;
74612;SDS011;63119;51.788;8.824;2023-06-01T05:33:34;11.30;;;6.00;;
74612;SDS011;63119;51.788;8.824;2023-06-01T05:36:01;10.13;;;5.28;;
74612;SDS011;63119;51.788;8.824;2023-06-01T05:38:26;13.17;;;5.33;;
74612;SDS011;63119;51.788;8.824;2023-06-01T05:40:52;10.93;;;5.03;;
74612;SDS011;63119;51.788;8.824;2023-06-01T05:43:17;11.80;;;5.93;;
74612;SDS011;63119;51.788;8.824;2023-06-01T05:45:42;15.07;;;6.90;;
74612;SDS011;63119;51.788;8.824;2023-06-01T05:48:07;17.17;;;6.20;;
74612;SDS011;63119;51.788;8.824;2023-06-01T05:50:33;11.33;;;5.53;;
74612;SDS011;63119;51.788;8.824;2023-06-01T05:52:58;14.40;;;5.93;;
74612;SDS011;63119;51.788;8.824;2023-06-01T05:55:23;14.57;;;5.70;;
74612;SDS011;63119;51.788;8.824;2023-06-01T05:57:48;13.23;;;6.47;;
74612;SDS011;63119;51.788;8.824;2023-06-01T06:00:14;11.47;;;5.23;;
74612;SDS011;63119;51.788;8.824;2023-06-01T06:02:40;10.55;;;5.35;;
74612;SDS011;63119;51.788;8.824;2023-06-01T06:07:34;11.05;;;4.75;;
74612;SDS011;63119;51.788;8.824;2023-06-01T06:09:59;13.75;;;6.22;;
74612;SDS011;63119;51.788;8.824;2023-06-01T06:12:25;11.97;;;5.43;;
74612;SDS011;63119;51.788;8.824;2023-06-01T06:14:50;10.60;;;5.50;;
74612;SDS011;63119;51.788;8.824;2023-06-01T06:17:15;11.33;;;5.60;;
74612;SDS011;63119;51.788;8.824;2023-06-01T06:19:41;13.70;;;6.13;;
74612;SDS011;63119;51.788;8.824;2023-06-01T06:22:08;14.88;;;6.55;;
74612;SDS011;63119;51.788;8.824;2023-06-01T06:24:34;13.32;;;5.93;;
74612;SDS011;63119;51.788;8.824;2023-06-01T06:26:59;15.63;;;5.72;;
74612;SDS011;63119;51.788;8.824;2023-06-01T06:29:25;11.60;;;6.03;;
74612;SDS011;63119;51.788;8.824;2023-06-01T06:31:50;10.98;;;5.80;;
74612;SDS011;63119;51.788;8.824;2023-06-01T06:34:15;18.03;;;6.30;;
74612;SDS011;63119;51.788;8.824;2023-06-01T06:36:41;15.30;;;6.20;;
74612;SDS011;63119;51.788;8.824;2023-06-01T06:39:06;14.73;;;5.68;;
74612;SDS011;63119;51.788;8.824;2023-06-01T06:41:31;14.07;;;5.83;;
74612;SDS011;63119;51.788;8.824;2023-06-01T06:43:57;18.80;;;8.07;;
74612;SDS011;63119;51.788;8.824;2023-06-01T06:46:22;11.67;;;6.20;;
74612;SDS011;63119;51.788;8.824;2023-06-01T06:48:48;12.30;;;6.40;;
74612;SDS011;63119;51.788;8.824;2023-06-01T06:51:13;13.97;;;6.33;;
74612;SDS011;63119;51.788;8.824;2023-06-01T06:53:38;14.00;;;5.93;;
74612;SDS011;63119;51.788;8.824;2023-06-01T06:56:03;12.37;;;5.93;;
74612;SDS011;63119;51.788;8.824;2023-06-01T06:58:29;16.13;;;5.82;;
74612;SDS011;63119;51.788;8.824;2023-06-01T07:00:54;12.60;;;5.57;;
74612;SDS011;63119;51.788;8.824;2023-06-01T07:03:19;12.87;;;5.77;;
74612;SDS011;63119;51.788;8.824;2023-06-01T07:05:45;16.33;;;6.05;;
74612;SDS011;63119;51.788;8.824;2023-06-01T07:08:10;15.10;;;5.93;;
74612;SDS011;63119;51.788;8.824;2023-06-01T07:10:36;13.48;;;6.20;;
74612;SDS011;63119;51.788;8.824;2023-06-01T07:13:01;11.77;;;6.37;;
74612;SDS011;63119;51.788;8.824;2023-06-01T07:15:26;11.70;;;5.73;;
74612;SDS011;63119;51.788;8.824;2023-06-01T07:17:52;15.60;;;6.35;;
74612;SDS011;63119;51.788;8.824;2023-06-01T07:20:17;16.70;;;6.87;;
74612;SDS011;63119;51.788;8.824;2023-06-01T07:22:42;14.38;;;6.38;;
74612;SDS011;63119;51.788;8.824;2023-06-01T07:25:09;10.63;;;5.97;;
74612;SDS011;63119;51.788;8.824;2023-06-01T07:27:34;13.00;;;6.78;;
74612;SDS011;63119;51.788;8.824;2023-06-01T07:30:02;13.20;;;6.78;;
74612;SDS011;63119;51.788;8.824;2023-06-01T07:32:28;14.63;;;6.50;;
74612;SDS011;63119;51.788;8.824;2023-06-01T07:34:54;12.30;;;5.95;;
74612;SDS011;63119;51.788;8.824;2023-06-01T07:37:22;11.30;;;6.30;;
74612;SDS011;63119;51.788;8.824;2023-06-01T07:39:49;13.23;;;6.30;;
74612;SDS011;63119;51.788;8.824;2023-06-01T07:42:14;14.63;;;6.20;;
74612;SDS011;63119;51.788;8.824;2023-06-01T07:44:40;18.58;;;7.10;;
74612;SDS011;63119;51.788;8.824;2023-06-01T07:47:05;15.40;;;6.22;;
74612;SDS011;63119;51.788;8.824;2023-06-01T07:49:31;11.55;;;6.13;;
74612;SDS011;63119;51.788;8.824;2023-06-01T07:51:56;13.27;;;6.57;;
74612;SDS011;63119;51.788;8.824;2023-06-01T07:54:23;13.88;;;6.45;;
74612;SDS011;63119;51.788;8.824;2023-06-01T07:56:48;15.47;;;6.60;;
74612;SDS011;63119;51.788;8.824;2023-06-01T07:59:14;16.80;;;6.30;;
74612;SDS011;63119;51.788;8.824;2023-06-01T08:01:39;18.38;;;6.40;;
74612;SDS011;63119;51.788;8.824;2023-06-01T08:04:04;17.63;;;7.40;;
74612;SDS011;63119;51.788;8.824;2023-06-01T08:06:30;16.65;;;6.80;;
74612;SDS011;63119;51.788;8.824;2023-06-01T08:09:00;13.95;;;7.68;;
74612;SDS011;63119;51.788;8.824;2023-06-01T08:11:25;17.88;;;7.05;;
74612;SDS011;63119;51.788;8.824;2023-06-01T08:13:51;16.77;;;6.80;;
74612;SDS011;63119;51.788;8.824;2023-06-01T08:16:17;13.15;;;6.57;;
74612;SDS011;63119;51.788;8.824;2023-06-01T08:18:42;14.73;;;7.03;;
74612;SDS011;63119;51.788;8.824;2023-06-01T08:21:07;11.43;;;6.13;;
74612;SDS011;63119;51.788;8.824;2023-06-01T08:23:35;14.75;;;7.15;;
74612;SDS011;63119;51.788;8.824;2023-06-01T08:26:01;16.80;;;6.77;;
74612;SDS011;63119;51.788;8.824;2023-06-01T08:28:26;13.50;;;6.28;;
74612;SDS011;63119;51.788;8.824;2023-06-01T08:30:52;14.57;;;6.90;;
74612;SDS011;63119;51.788;8.824;2023-06-01T08:33:17;14.17;;;6.57;;
74612;SDS011;63119;51.788;8.824;2023-06-01T08:35:42;17.13;;;7.17;;
74612;SDS011;63119;51.788;8.824;2023-06-01T08:38:08;13.83;;;6.70;;
74612;SDS011;63119;51.788;8.824;2023-06-01T08:40:33;12.48;;;6.50;;
74612;SDS011;63119;51.788;8.824;2023-06-01T08:42:59;13.17;;;6.47;;
74612;SDS011;63119;51.788;8.824;2023-06-01T08:45:34;15.73;;;7.43;;
74612;SDS011;63119;51.788;8.824;2023-06-01T08:48:01;12.30;;;7.28;;
74612;SDS011;63119;51.788;8.824;2023-06-01T08:50:29;14.32;;;6.90;;
74612;SDS011;63119;51.788;8.824;2023-06-01T08:52:54;13.48;;;6.57;;
74612;SDS011;63119;51.788;8.824;2023-06-01T08:55:22;13.02;;;7.35;;
74612;SDS011;63119;51.788;8.824;2023-06-01T08:57:47;21.45;;;8.57;;
74612;SDS011;63119;51.788;8.824;2023-06-01T09:00:13;12.55;;;7.00;;
74612;SDS011;63119;51.788;8.824;2023-06-01T09:02:39;18.02;;;7.80;;
74612;SDS011;63119;51.788;8.824;2023-06-01T09:05:05;18.70;;;7.72;;
74612;SDS011;63119;51.788;8.824;2023-06-01T09:07:30;17.27;;;9.13;;
74612;SDS011;63119;51.788;8.824;2023-06-01T09:09:56;16.48;;;8.77;;
74612;SDS011;63119;51.788;8.824;2023-06-01T09:12:22;20.75;;;12.13;;
74612;SDS011;63119;51.788;8.824;2023-06-01T09:14:49;14.95;;;7.15;;
74612;SDS011;63119;51.788;8.824;2023-06-01T09:17:20;14.32;;;8.73;;
74612;SDS011;63119;51.788;8.824;2023-06-01T09:19:47;27.60;;;17.02;;
74612;SDS011;63119;51.788;8.824;2023-06-01T09:22:15;17.42;;;8.93;;
74612;SDS011;63119;51.788;8.824;2023-06-01T09:24:40;16.20;;;8.63;;
74612;SDS011;63119;51.788;8.824;2023-06-01T09:27:06;16.67;;;8.90;;
74612;SDS011;63119;51.788;8.824;2023-06-01T09:29:31;17.23;;;9.32;;
74612;SDS011;63119;51.788;8.824;2023-06-01T09:31:57;21.70;;;8.90;;
74612;SDS011;63119;51.788;8.824;2023-06-01T09:34:22;19.42;;;8.52;;
74612;SDS011;63119;51.788;8.824;2023-06-01T09:36:48;17.33;;;9.07;;
74612;SDS011;63119;51.788;8.824;2023-06-01T09:39:16;17.42;;;8.40;;
74612;SDS011;63119;51.788;8.824;2023-06-01T09:41:47;19.60;;;8.05;;
74612;SDS011;63119;51.788;8.824;2023-06-01T09:44:21;16.73;;;7.85;;
74612;SDS011;63119;51.788;8.824;2023-06-01T09:46:51;17.10;;;9.23;;
74612;SDS011;63119;51.788;8.824;2023-06-01T09:49:30;17.60;;;8.88;;
74612;SDS011;63119;51.788;8.824;2023-06-01T09:54:29;14.52;;;7.93;;
74612;SDS011;63119;51.788;8.824;2023-06-01T09:56:56;17.77;;;8.43;;
74612;SDS011;63119;51.788;8.824;2023-06-01T09:59:22;14.45;;;7.68;;
74612;SDS011;63119;51.788;8.824;2023-06-01T10:01:50;17.98;;;8.02;;
74612;SDS011;63119;51.788;8.824;2023-06-01T10:06:47;14.85;;;7.78;;
74612;SDS011;63119;51.788;8.824;2023-06-01T10:09:13;16.48;;;8.00;;
74612;SDS011;63119;51.788;8.824;2023-06-01T10:11:43;13.93;;;7.60;;
74612;SDS011;63119;51.788;8.824;2023-06-01T10:14:09;18.20;;;7.47;;
74612;SDS011;63119;51.788;8.824;2023-06-01T10:16:34;13.95;;;7.78;;
74612;SDS011;63119;51.788;8.824;2023-06-01T10:19:00;14.82;;;7.18;;
74612;SDS011;63119;51.788;8.824;2023-06-01T10:21:26;12.88;;;6.85;;
74612;SDS011;63119;51.788;8.824;2023-06-01T10:23:52;17.45;;;7.40;;
74612;SDS011;63119;51.788;8.824;2023-06-01T10:26:17;15.47;;;7.73;;
74612;SDS011;63119;51.788;8.824;2023-06-01T10:28:45;19.08;;;7.97;;
74612;SDS011;63119;51.788;8.824;2023-06-01T10:34:03;14.98;;;7.93;;
74612;SDS011;63119;51.788;8.824;2023-06-01T10:41:55;14.32;;;7.68;;
74612;SDS011;63119;51.788;8.824;2023-06-01T10:44:47;13.82;;;7.18;;
74612;SDS011;63119;51.788;8.824;2023-06-01T10:52:26;18.58;;;7.28;;
74612;SDS011;63119;51.788;8.824;2023-06-01T10:54:54;14.30;;;6.80;;
74612;SDS011;63119;51.788;8.824;2023-06-01T10:57:40;18.77;;;6.90;;
74612;SDS011;63119;51.788;8.824;2023-06-01T11:00:24;13.15;;;7.35;;
74612;SDS011;63119;51.788;8.824;2023-06-01T11:02:54;14.40;;;7.18;;
74612;SDS011;63119;51.788;8.824;2023-06-01T11:10:57;13.10;;;7.53;;
74612;SDS011;63119;51.788;8.824;2023-06-01T11:16:26;12.10;;;6.28;;
74612;SDS011;63119;51.788;8.824;2023-06-01T11:18:52;13.02;;;6.38;;
74612;SDS011;63119;51.788;8.824;2023-06-01T11:21:23;14.73;;;6.85;;
74612;SDS011;63119;51.788;8.824;2023-06-01T11:23:50;12.00;;;6.18;;
74612;SDS011;63119;51.788;8.824;2023-06-01T11:26:20;10.25;;;6.95;;
74612;SDS011;63119;51.788;8.824;2023-06-01T11:28:49;18.52;;;8.57;;
74612;SDS011;63119;51.788;8.824;2023-06-01T11:31:16;12.50;;;6.97;;
74612;SDS011;63119;51.788;8.824;2023-06-01T11:33:48;12.95;;;6.28;;
74612;SDS011;63119;51.788;8.824;2023-06-01T11:36:19;14.07;;;6.65;;
74612;SDS011;63119;51.788;8.824;2023-06-01T11:38:50;9.45;;;6.05;;
74612;SDS011;63119;51.788;8.824;2023-06-01T11:41:16;12.02;;;6.88;;
74612;SDS011;63119;51.788;8.824;2023-06-01T11:43:41;14.75;;;8.07;;
74612;SDS011;63119;51.788;8.824;2023-06-01T11:46:08;10.70;;;5.97;;
74612;SDS011;63119;51.788;8.824;2023-06-01T11:48:34;13.60;;;5.88;;
74612;SDS011;63119;51.788;8.824;2023-06-01T11:51:00;13.82;;;6.72;;
74612;SDS011;63119;51.788;8.824;2023-06-01T11:53:26;14.85;;;6.65;;
74612;SDS011;63119;51.788;8.824;2023-06-01T11:55:55;12.23;;;6.07;;
74612;SDS011;63119;51.788;8.824;2023-06-01T11:58:22;14.90;;;6.95;;
74612;SDS011;63119;51.788;8.824;2023-06-01T12:00:54;17.00;;;6.80;;
74612;SDS011;63119;51.788;8.824;2023-06-01T12:03:20;12.73;;;5.75;;
74612;SDS011;63119;51.788;8.824;2023-06-01T12:05:46;11.23;;;5.97;;
74612;SDS011;63119;51.788;8.824;2023-06-01T12:08:14;13.38;;;5.90;;
74612;SDS011;63119;51.788;8.824;2023-06-01T12:10:43;10.70;;;5.47;;
74612;SDS011;63119;51.788;8.824;2023-06-01T12:13:09;11.05;;;5.10;;
74612;SDS011;63119;51.788;8.824;2023-06-01T12:15:36;9.90;;;4.82;;
74612;SDS011;63119;51.788;8.824;2023-06-01T12:18:02;8.52;;;4.75;;
74612;SDS011;63119;51.788;8.824;2023-06-01T12:20:32;9.68;;;4.65;;
74612;SDS011;63119;51.788;8.824;2023-06-01T12:23:00;13.82;;;5.20;;
74612;SDS011;63119;51.788;8.824;2023-06-01T12:25:28;12.18;;;4.95;;
74612;SDS011;63119;51.788;8.824;2023-06-01T12:28:02;13.43;;;5.13;;
74612;SDS011;63119;51.788;8.824;2023-06-01T12:30:29;9.32;;;4.45;;
74612;SDS011;63119;51.788;8.824;2023-06-01T12:32:54;12.50;;;4.90;;
74612;SDS011;63119;51.788;8.824;2023-06-01T12:35:20;9.48;;;4.95;;
74612;SDS011;63119;51.788;8.824;2023-06-01T12:38:01;8.75;;;4.35;;
74612;SDS011;63119;51.788;8.824;2023-06-01T12:40:28;7.93;;;3.97;;
74612;SDS011;63119;51.788;8.824;2023-06-01T12:42:54;9.05;;;4.82;;
74612;SDS011;63119;51.788;8.824;2023-06-01T12:45:19;8.55;;;4.32;;
74612;SDS011;63119;51.788;8.824;2023-06-01T12:47:45;9.23;;;4.90;;
74612;SDS011;63119;51.788;8.824;2023-06-01T12:50:10;8.60;;;4.77;;
74612;SDS011;63119;51.788;8.824;2023-06-01T12:52:39;9.10;;;4.63;;
74612;SDS011;63119;51.788;8.824;2023-06-01T12:55:07;9.50;;;4.00;;
74612;SDS011;63119;51.788;8.824;2023-06-01T12:57:33;9.02;;;4.47;;
74612;SDS011;63119;51.788;8.824;2023-06-01T12:59:59;7.90;;;3.70;;
74612;SDS011;63119;51.788;8.824;2023-06-01T13:02:25;7.47;;;4.00;;
74612;SDS011;63119;51.788;8.824;2023-06-01T13:04:51;7.78;;;3.70;;
74612;SDS011;63119;51.788;8.824;2023-06-01T13:07:18;6.45;;;3.97;;
74612;SDS011;63119;51.788;8.824;2023-06-01T13:09:43;7.22;;;3.65;;
74612;SDS011;63119;51.788;8.824;2023-06-01T13:12:09;7.00;;;3.67;;
74612;SDS011;63119;51.788;8.824;2023-06-01T13:14:35;5.65;;;3.53;;
74612;SDS011;63119;51.788;8.824;2023-06-01T13:17:01;7.88;;;3.50;;
74612;SDS011;63119;51.788;8.824;2023-06-01T13:19:28;7.15;;;3.70;;
74612;SDS011;63119;51.788;8.824;2023-06-01T13:21:53;7.63;;;3.90;;
74612;SDS011;63119;51.788;8.824;2023-06-01T13:24:18;7.67;;;3.90;;
74612;SDS011;63119;51.788;8.824;2023-06-01T13:26:44;9.03;;;3.93;;
74612;SDS011;63119;51.788;8.824;2023-06-01T13:29:09;12.00;;;3.50;;
74612;SDS011;63119;51.788;8.824;2023-06-01T13:31:35;7.13;;;3.30;;
74612;SDS011;63119;51.788;8.824;2023-06-01T13:34:02;7.35;;;3.47;;
74612;SDS011;63119;51.788;8.824;2023-06-01T13:36:28;7.32;;;3.67;;
74612;SDS011;63119;51.788;8.824;2023-06-01T13:38:53;6.10;;;3.70;;
74612;SDS011;63119;51.788;8.824;2023-06-01T13:41:18;5.00;;;3.37;;
74612;SDS011;63119;51.788;8.824;2023-06-01T13:43:44;7.50;;;4.13;;
74612;SDS011;63119;51.788;8.824;2023-06-01T13:46:09;8.10;;;4.07;;
74612;SDS011;63119;51.788;8.824;2023-06-01T13:48:35;6.75;;;4.00;;
74612;SDS011;63119;51.788;8.824;2023-06-01T13:51:01;6.18;;;3.50;;
74612;SDS011;63119;51.788;8.824;2023-06-01T13:53:26;8.23;;;3.97;;
74612;SDS011;63119;51.788;8.824;2023-06-01T13:55:51;6.83;;;3.57;;
74612;SDS011;63119;51.788;8.824;2023-06-01T13:58:16;6.13;;;3.57;;
74612;SDS011;63119;51.788;8.824;2023-06-01T14:00:42;5.63;;;3.10;;
74612;SDS011;63119;51.788;8.824;2023-06-01T14:03:07;5.87;;;3.90;;
74612;SDS011;63119;51.788;8.824;2023-06-01T14:05:32;6.70;;;3.93;;
74612;SDS011;63119;51.788;8.824;2023-06-01T14:07:58;6.07;;;3.23;;
74612;SDS011;63119;51.788;8.824;2023-06-01T14:10:23;6.23;;;3.13;;
74612;SDS011;63119;51.788;8.824;2023-06-01T14:12:48;6.10;;;3.50;;
74612;SDS011;63119;51.788;8.824;2023-06-01T14:15:14;6.33;;;3.40;;
74612;SDS011;63119;51.788;8.824;2023-06-01T14:17:39;4.90;;;3.13;;
74612;SDS011;63119;51.788;8.824;2023-06-01T14:20:04;7.57;;;3.70;;
74612;SDS011;63119;51.788;8.824;2023-06-01T14:22:30;5.93;;;3.30;;
74612;SDS011;63119;51.788;8.824;2023-06-01T14:24:55;5.30;;;3.23;;
74612;SDS011;63119;51.788;8.824;2023-06-01T14:27:20;7.37;;;3.37;;
74612;SDS011;63119;51.788;8.824;2023-06-01T14:29:46;7.63;;;3.50;;
74612;SDS011;63119;51.788;8.824;2023-06-01T14:32:11;7.03;;;3.57;;
74612;SDS011;63119;51.788;8.824;2023-06-01T14:34:36;5.67;;;3.00;;
74612;SDS011;63119;51.788;8.824;2023-06-01T14:37:01;5.73;;;2.90;;
74612;SDS011;63119;51.788;8.824;2023-06-01T14:39:29;6.82;;;3.22;;
74612;SDS011;63119;51.788;8.824;2023-06-01T14:41:54;5.80;;;3.33;;
74612;SDS011;63119;51.788;8.824;2023-06-01T14:44:20;7.53;;;3.53;;
74612;SDS011;63119;51.788;8.824;2023-06-01T14:46:45;7.45;;;3.00;;
74612;SDS011;63119;51.788;8.824;2023-06-01T14:49:10;8.30;;;3.33;;
74612;SDS011;63119;51.788;8.824;2023-06-01T14:51:36;7.33;;;3.10;;
74612;SDS011;63119;51.788;8.824;2023-06-01T14:54:01;5.20;;;3.17;;
74612;SDS011;63119;51.788;8.824;2023-06-01T14:56:26;5.90;;;3.43;;
74612;SDS011;63119;51.788;8.824;2023-06-01T14:58:52;7.63;;;3.17;;
74612;SDS011;63119;51.788;8.824;2023-06-01T15:01:18;4.32;;;2.92;;
74612;SDS011;63119;51.788;8.824;2023-06-01T15:03:43;3.87;;;2.30;;
74612;SDS011;63119;51.788;8.824;2023-06-01T15:06:08;7.13;;;2.90;;
74612;SDS011;63119;51.788;8.824;2023-06-01T15:08:33;6.67;;;3.10;;
74612;SDS011;63119;51.788;8.824;2023-06-01T15:10:59;5.70;;;2.92;;
74612;SDS011;63119;51.788;8.824;2023-06-01T15:13:24;6.20;;;2.93;;
74612;SDS011;63119;51.788;8.824;2023-06-01T15:15:49;5.37;;;2.53;;
74612;SDS011;63119;51.788;8.824;2023-06-01T15:18:15;5.43;;;2.87;;